createdAt,value
2022-07-29T00:00:14.036Z,18.93
2022-07-29T00:01:19.443Z,18.86
2022-07-29T00:02:23.685Z,18.85
2022-07-29T00:03:25.554Z,18.91
2022-07-29T00:04:27.369Z,18.97
2022-07-29T00:05:29.535Z,18.88
2022-07-29T00:06:31.208Z,18.82
2022-07-29T00:07:32.911Z,18.75
2022-07-29T00:08:34.769Z,18.78
2022-07-29T00:09:50.539Z,18.75
2022-07-29T00:10:53.078Z,18.90
2022-07-29T00:11:57.789Z,18.76
2022-07-29T00:12:59.546Z,18.70
2022-07-29T00:14:01.507Z,18.72
2022-07-29T00:15:04.284Z,18.74
2022-07-29T00:16:06.070Z,18.71
2022-07-29T00:17:07.779Z,18.69
2022-07-29T00:18:09.403Z,18.67
2022-07-29T00:19:11.228Z,18.74
2022-07-29T00:20:14.231Z,18.85
2022-07-29T00:21:16.108Z,18.96
2022-07-29T00:22:18.072Z,19.01
2022-07-29T00:23:19.716Z,19.09
2022-07-29T00:24:21.508Z,19.05
2022-07-29T00:25:23.170Z,18.99
2022-07-29T00:26:24.886Z,19.00
2022-07-29T00:27:26.688Z,19.05
2022-07-29T00:28:28.347Z,19.09
2022-07-29T00:29:34.698Z,19.08
2022-07-29T00:30:36.777Z,19.02
2022-07-29T00:31:38.755Z,18.83
2022-07-29T00:32:40.638Z,18.83
2022-07-29T00:33:42.351Z,18.83
2022-07-29T00:35:02.880Z,18.74
2022-07-29T00:36:05.138Z,18.72
2022-07-29T00:37:07.941Z,18.67
2022-07-29T00:38:10.535Z,18.68
2022-07-29T00:39:12.139Z,18.65
2022-07-29T00:40:13.779Z,18.55
2022-07-29T00:41:16.710Z,18.45
2022-07-29T00:42:18.502Z,18.44
2022-07-29T00:43:20.350Z,18.46
2022-07-29T00:44:22.018Z,18.42
2022-07-29T00:45:23.771Z,18.48
2022-07-29T00:46:25.564Z,18.42
2022-07-29T00:47:27.202Z,18.36
2022-07-29T00:48:29.001Z,18.32
2022-07-29T00:49:30.626Z,18.36
2022-07-29T00:50:33.361Z,18.31
2022-07-29T00:51:39.291Z,18.31
2022-07-29T00:52:43.082Z,18.39
2022-07-29T00:53:45.256Z,18.32
2022-07-29T00:54:47.153Z,18.33
2022-07-29T00:55:48.973Z,18.39
2022-07-29T00:56:50.870Z,18.30
2022-07-29T00:57:53.768Z,18.20
2022-07-29T00:58:57.466Z,18.19
2022-07-29T00:59:59.237Z,18.35
2022-07-29T01:01:01.010Z,18.25
2022-07-29T01:02:04.347Z,18.24
2022-07-29T01:03:08.420Z,18.29
2022-07-29T01:04:10.206Z,18.27
2022-07-29T01:05:13.725Z,18.21
2022-07-29T01:06:17.486Z,17.99
2022-07-29T01:07:19.332Z,18.01
2022-07-29T01:08:21.739Z,18.03
2022-07-29T01:09:42.175Z,18.08
2022-07-29T01:10:47.953Z,18.15
2022-07-29T01:11:54.127Z,18.10
2022-07-29T01:12:59.446Z,18.09
2022-07-29T01:14:02.332Z,18.08
2022-07-29T01:15:07.078Z,18.12
2022-07-29T01:16:22.181Z,18.05
2022-07-29T01:17:40.027Z,17.95
2022-07-29T01:19:01.891Z,17.87
2022-07-29T01:20:18.042Z,17.90
2022-07-29T01:21:44.943Z,17.88
2022-07-29T01:23:01.778Z,17.80
2022-07-29T01:24:18.796Z,17.75
2022-07-29T01:25:53.118Z,17.67
2022-07-29T01:27:20.510Z,17.77
2022-07-29T01:28:41.167Z,17.80
2022-07-29T01:29:55.011Z,17.69
2022-07-29T01:30:57.787Z,17.75
2022-07-29T01:32:08.447Z,17.75
2022-07-29T01:33:41.679Z,17.70
2022-07-29T01:34:49.379Z,17.81
2022-07-29T01:35:52.308Z,17.89
2022-07-29T01:37:05.125Z,18.01
2022-07-29T01:38:13.737Z,18.04
2022-07-29T01:39:20.882Z,17.90
2022-07-29T01:40:30.145Z,17.90
2022-07-29T01:41:36.044Z,17.94
2022-07-29T01:42:45.187Z,18.01
2022-07-29T01:44:00.355Z,18.04
2022-07-29T01:45:39.685Z,18.09
2022-07-29T01:46:49.603Z,17.97
2022-07-29T01:47:55.900Z,18.00
2022-07-29T01:49:19.957Z,17.95
2022-07-29T01:50:27.651Z,17.94
2022-07-29T01:51:34.044Z,17.95
2022-07-29T01:52:43.454Z,17.93
2022-07-29T01:53:55.093Z,17.92
2022-07-29T01:55:00.260Z,17.92
2022-07-29T01:56:03.946Z,17.86
2022-07-29T01:57:09.332Z,17.91
2022-07-29T01:58:13.235Z,17.92
2022-07-29T01:59:17.263Z,17.90
2022-07-29T02:00:19.974Z,17.83
2022-07-29T02:01:25.241Z,17.74
2022-07-29T02:02:29.014Z,17.81
2022-07-29T02:03:33.529Z,17.82
2022-07-29T02:04:37.825Z,17.77
2022-07-29T02:05:43.553Z,17.83
2022-07-29T02:06:48.033Z,17.89
2022-07-29T02:07:51.926Z,17.93
2022-07-29T02:08:54.319Z,17.78
2022-07-29T02:09:58.269Z,17.79
2022-07-29T02:11:03.181Z,17.75
2022-07-29T02:12:06.827Z,17.77
2022-07-29T02:13:10.592Z,17.67
2022-07-29T02:14:15.817Z,17.69
2022-07-29T02:15:19.081Z,17.71
2022-07-29T02:16:22.793Z,17.74
2022-07-29T02:17:33.625Z,17.75
2022-07-29T02:18:38.720Z,17.75
2022-07-29T02:19:44.167Z,17.68
2022-07-29T02:20:49.370Z,17.62
2022-07-29T02:21:54.561Z,17.59
2022-07-29T02:22:59.682Z,17.60
2022-07-29T02:24:02.849Z,17.54
2022-07-29T02:25:06.532Z,17.60
2022-07-29T02:26:18.035Z,17.62
2022-07-29T02:27:23.521Z,17.61
2022-07-29T02:28:28.727Z,17.59
2022-07-29T02:29:33.327Z,17.69
2022-07-29T02:30:40.009Z,17.61
2022-07-29T02:31:44.719Z,17.58
2022-07-29T02:32:48.557Z,17.58
2022-07-29T02:33:52.816Z,17.59
2022-07-29T02:34:55.175Z,17.60
2022-07-29T02:35:59.486Z,17.60
2022-07-29T02:37:01.992Z,17.58
2022-07-29T02:38:23.368Z,17.62
2022-07-29T02:39:27.647Z,17.64
2022-07-29T02:40:29.523Z,17.59
2022-07-29T02:41:53.372Z,17.57
2022-07-29T02:42:55.765Z,17.51
2022-07-29T02:44:03.796Z,17.55
2022-07-29T02:45:06.766Z,17.46
2022-07-29T02:46:28.795Z,17.51
2022-07-29T02:47:41.500Z,17.60
2022-07-29T02:48:53.145Z,17.60
2022-07-29T02:49:58.802Z,17.66
2022-07-29T02:51:09.048Z,17.69
2022-07-29T02:52:20.947Z,17.63
2022-07-29T02:53:27.873Z,17.67
2022-07-29T02:55:11.196Z,17.66
2022-07-29T02:56:16.813Z,17.64
2022-07-29T02:57:34.110Z,17.48
2022-07-29T02:58:41.547Z,17.36
2022-07-29T02:59:46.155Z,17.40
2022-07-29T03:00:49.988Z,17.49
2022-07-29T03:01:53.330Z,17.50
2022-07-29T03:02:57.580Z,17.55
2022-07-29T03:04:04.881Z,17.64
2022-07-29T03:05:10.463Z,17.55
2022-07-29T03:06:28.537Z,17.58
2022-07-29T03:07:36.933Z,17.52
2022-07-29T03:08:38.825Z,17.54
2022-07-29T03:09:42.937Z,17.60
2022-07-29T03:10:48.078Z,17.63
2022-07-29T03:11:51.117Z,17.74
2022-07-29T03:12:53.203Z,17.68
2022-07-29T03:13:55.765Z,17.60
2022-07-29T03:14:58.843Z,17.51
2022-07-29T03:16:01.479Z,17.53
2022-07-29T03:17:03.776Z,17.56
2022-07-29T03:18:07.088Z,17.58
2022-07-29T03:19:08.978Z,17.66
2022-07-29T03:20:12.063Z,17.55
2022-07-29T03:21:13.924Z,17.60
2022-07-29T03:22:15.781Z,17.69
2022-07-29T03:23:23.797Z,17.68
2022-07-29T03:24:27.798Z,17.62
2022-07-29T03:25:29.792Z,17.58
2022-07-29T03:26:31.555Z,17.57
2022-07-29T03:27:33.311Z,17.59
2022-07-29T03:28:34.965Z,17.53
2022-07-29T03:29:38.696Z,17.55
2022-07-29T03:30:40.516Z,17.57
2022-07-29T03:31:46.181Z,17.55
2022-07-29T03:32:48.136Z,17.60
2022-07-29T03:33:49.740Z,17.57
2022-07-29T03:34:51.681Z,17.49
2022-07-29T03:35:53.484Z,17.55
2022-07-29T03:36:55.134Z,17.59
2022-07-29T03:37:56.913Z,17.42
2022-07-29T03:38:58.855Z,17.22
2022-07-29T03:40:02.500Z,17.16
2022-07-29T03:41:08.726Z,17.12
2022-07-29T03:42:14.903Z,17.27
2022-07-29T03:43:18.950Z,17.39
2022-07-29T03:44:22.685Z,17.30
2022-07-29T03:45:26.438Z,17.37
2022-07-29T03:46:30.717Z,17.46
2022-07-29T03:47:35.530Z,17.43
2022-07-29T03:48:57.474Z,17.58
2022-07-29T03:50:05.394Z,17.64
2022-07-29T03:51:08.291Z,17.36
2022-07-29T03:52:10.150Z,17.39
2022-07-29T03:53:12.252Z,17.27
2022-07-29T03:54:14.990Z,17.31
2022-07-29T03:55:17.333Z,17.40
2022-07-29T03:56:22.492Z,17.46
2022-07-29T03:57:28.387Z,17.40
2022-07-29T03:58:32.632Z,17.36
2022-07-29T03:59:35.461Z,17.34
2022-07-29T04:00:38.659Z,17.32
2022-07-29T04:01:41.363Z,17.37
2022-07-29T04:02:49.229Z,17.42
2022-07-29T04:03:52.077Z,17.40
2022-07-29T04:04:54.244Z,17.08
2022-07-29T04:06:03.933Z,17.10
2022-07-29T04:07:06.107Z,16.97
2022-07-29T04:08:07.945Z,17.02
2022-07-29T04:09:10.725Z,17.03
2022-07-29T04:10:12.788Z,17.05
2022-07-29T04:11:14.612Z,16.99
2022-07-29T04:12:16.496Z,17.01
2022-07-29T04:13:18.199Z,17.03
2022-07-29T04:14:20.011Z,17.00
2022-07-29T04:15:21.842Z,17.01
2022-07-29T04:16:23.551Z,17.01
2022-07-29T04:17:25.407Z,17.05
2022-07-29T04:18:27.095Z,17.04
2022-07-29T04:19:28.934Z,17.07
2022-07-29T04:20:30.766Z,17.20
2022-07-29T04:21:37.472Z,17.18
2022-07-29T04:22:39.158Z,17.10
2022-07-29T04:23:52.813Z,17.18
2022-07-29T04:24:57.109Z,17.26
2022-07-29T04:26:02.272Z,17.20
2022-07-29T04:27:04.194Z,17.19
2022-07-29T04:28:06.579Z,17.08
2022-07-29T04:29:08.463Z,17.00
2022-07-29T04:30:10.270Z,17.07
2022-07-29T04:31:12.958Z,17.20
2022-07-29T04:32:14.958Z,17.05
2022-07-29T04:33:17.530Z,17.14
2022-07-29T04:34:19.926Z,17.24
2022-07-29T04:35:21.909Z,17.21
2022-07-29T04:36:29.075Z,17.17
2022-07-29T04:37:31.497Z,17.20
2022-07-29T04:38:33.172Z,17.18
2022-07-29T04:39:34.939Z,17.25
2022-07-29T04:40:38.643Z,17.28
2022-07-29T04:41:40.416Z,17.37
2022-07-29T04:42:46.708Z,17.36
2022-07-29T04:43:49.506Z,17.38
2022-07-29T04:44:51.507Z,17.37
2022-07-29T04:45:53.714Z,17.47
2022-07-29T04:46:55.510Z,17.59
2022-07-29T04:47:57.880Z,17.65
2022-07-29T04:48:59.717Z,17.71
2022-07-29T04:50:01.529Z,17.75
2022-07-29T04:51:03.173Z,17.79
2022-07-29T04:52:05.481Z,17.94
2022-07-29T04:53:08.613Z,18.04
2022-07-29T04:54:10.531Z,17.99
2022-07-29T04:55:12.531Z,17.90
2022-07-29T04:56:14.352Z,17.82
2022-07-29T04:57:16.149Z,17.84
2022-07-29T04:58:17.955Z,17.83
2022-07-29T04:59:19.813Z,17.76
2022-07-29T05:00:21.498Z,17.72
2022-07-29T05:01:29.984Z,17.81
2022-07-29T05:02:31.752Z,17.88
2022-07-29T05:03:33.563Z,18.00
2022-07-29T05:04:35.399Z,18.06
2022-07-29T05:05:37.188Z,18.07
2022-07-29T05:06:39.008Z,18.03
2022-07-29T05:07:40.722Z,18.05
2022-07-29T05:08:42.567Z,18.02
2022-07-29T05:09:44.233Z,18.07
2022-07-29T05:10:46.426Z,18.13
2022-07-29T05:11:48.116Z,18.20
2022-07-29T05:12:49.798Z,18.29
2022-07-29T05:13:51.590Z,18.35
2022-07-29T05:14:53.246Z,18.26
2022-07-29T05:15:55.630Z,18.28
2022-07-29T05:16:58.109Z,18.36
2022-07-29T05:18:00.139Z,18.44
2022-07-29T05:19:01.835Z,18.45
2022-07-29T05:20:03.897Z,18.54
2022-07-29T05:21:05.706Z,18.49
2022-07-29T05:22:07.334Z,18.52
2022-07-29T05:23:09.032Z,18.64
2022-07-29T05:24:10.855Z,18.66
2022-07-29T05:25:12.662Z,18.56
2022-07-29T05:26:14.464Z,18.52
2022-07-29T05:27:16.122Z,18.58
2022-07-29T05:28:18.018Z,18.54
2022-07-29T05:29:43.187Z,18.57
2022-07-29T05:30:41.683Z,18.76
2022-07-29T05:31:43.500Z,18.79
2022-07-29T05:32:45.447Z,18.77
2022-07-29T05:33:47.121Z,18.83
2022-07-29T05:34:50.243Z,18.84
2022-07-29T05:35:56.210Z,18.73
2022-07-29T05:37:00.462Z,18.75
2022-07-29T05:38:02.166Z,18.74
2022-07-29T05:39:03.840Z,18.84
2022-07-29T05:40:06.899Z,18.91
2022-07-29T05:41:08.559Z,18.97
2022-07-29T05:42:11.059Z,18.84
2022-07-29T05:43:12.715Z,18.90
2022-07-29T05:44:15.084Z,18.97
2022-07-29T05:45:16.980Z,19.04
2022-07-29T05:46:18.779Z,18.89
2022-07-29T05:47:20.743Z,18.90
2022-07-29T05:48:22.587Z,18.98
2022-07-29T05:49:27.257Z,18.95
2022-07-29T05:50:29.219Z,18.98
2022-07-29T05:51:31.244Z,19.17
2022-07-29T05:52:32.886Z,19.32
2022-07-29T05:53:34.662Z,19.40
2022-07-29T05:54:36.911Z,19.36
2022-07-29T05:55:38.812Z,19.30
2022-07-29T05:56:41.135Z,19.12
2022-07-29T05:57:44.434Z,19.12
2022-07-29T05:58:46.245Z,19.15
2022-07-29T05:59:48.294Z,19.13
2022-07-29T06:00:50.179Z,19.15
2022-07-29T06:01:51.906Z,18.93
2022-07-29T06:02:53.770Z,19.02
2022-07-29T06:03:55.655Z,19.08
2022-07-29T06:04:57.424Z,19.17
2022-07-29T06:05:59.089Z,19.32
2022-07-29T06:07:00.757Z,19.49
2022-07-29T06:08:02.681Z,19.40
2022-07-29T06:09:12.259Z,19.48
2022-07-29T06:10:14.587Z,19.34
2022-07-29T06:11:16.279Z,19.32
2022-07-29T06:12:18.168Z,19.28
2022-07-29T06:13:19.847Z,19.20
2022-07-29T06:14:21.537Z,19.15
2022-07-29T06:15:23.526Z,19.26
2022-07-29T06:16:29.926Z,19.41
2022-07-29T06:17:32.839Z,19.39
2022-07-29T06:18:34.482Z,19.38
2022-07-29T06:19:37.176Z,19.30
2022-07-29T06:20:39.121Z,19.24
2022-07-29T06:21:44.925Z,19.35
2022-07-29T06:22:46.720Z,19.35
2022-07-29T06:23:48.470Z,19.44
2022-07-29T06:24:50.789Z,19.44
2022-07-29T06:25:52.659Z,19.52
2022-07-29T06:26:54.325Z,19.60
2022-07-29T06:27:55.958Z,19.63
2022-07-29T06:28:57.612Z,19.87
2022-07-29T06:29:59.391Z,20.13
2022-07-29T06:31:01.270Z,20.25
2022-07-29T06:32:03.509Z,20.23
2022-07-29T06:33:05.522Z,20.34
2022-07-29T06:34:07.503Z,20.44
2022-07-29T06:35:37.619Z,20.32
2022-07-29T06:36:31.941Z,20.36
2022-07-29T06:37:33.730Z,20.46
2022-07-29T06:38:42.922Z,20.58
2022-07-29T06:40:09.266Z,20.72
2022-07-29T06:41:13.491Z,20.75
2022-07-29T06:42:15.439Z,20.86
2022-07-29T06:43:17.133Z,20.64
2022-07-29T06:44:20.133Z,20.82
2022-07-29T06:45:22.369Z,20.76
2022-07-29T06:46:24.400Z,20.72
2022-07-29T06:47:26.392Z,20.71
2022-07-29T06:48:29.046Z,20.72
2022-07-29T06:49:30.850Z,20.49
2022-07-29T06:50:32.769Z,20.62
2022-07-29T06:51:34.848Z,20.66
2022-07-29T06:52:37.916Z,20.74
2022-07-29T06:53:59.544Z,20.92
2022-07-29T06:55:05.586Z,20.89
2022-07-29T06:56:09.755Z,20.49
2022-07-29T06:57:11.457Z,20.44
2022-07-29T06:58:15.134Z,20.55
2022-07-29T06:59:17.010Z,20.71
2022-07-29T07:00:18.730Z,20.80
2022-07-29T07:01:21.075Z,21.05
2022-07-29T07:02:23.931Z,21.18
2022-07-29T07:03:25.857Z,21.46
2022-07-29T07:04:27.726Z,21.64
2022-07-29T07:06:31.324Z,21.87
2022-07-29T07:08:34.836Z,21.79
2022-07-29T07:09:40.508Z,21.68
2022-07-29T07:10:43.691Z,21.56
2022-07-29T07:11:45.492Z,21.28
2022-07-29T07:12:51.469Z,21.44
2022-07-29T07:13:53.156Z,21.69
2022-07-29T07:14:54.833Z,21.89
2022-07-29T07:15:56.468Z,22.06
2022-07-29T07:16:58.308Z,22.00
2022-07-29T07:18:00.032Z,22.22
2022-07-29T07:19:01.794Z,22.81
2022-07-29T07:20:03.836Z,23.15
2022-07-29T07:21:06.674Z,23.06
2022-07-29T07:22:08.339Z,22.99
2022-07-29T07:23:10.201Z,22.84
2022-07-29T07:24:11.939Z,22.90
2022-07-29T07:25:14.159Z,22.99
2022-07-29T07:26:15.808Z,22.76
2022-07-29T07:27:17.559Z,22.54
2022-07-29T07:28:24.656Z,22.48
2022-07-29T07:29:26.903Z,22.27
2022-07-29T07:30:28.762Z,22.42
2022-07-29T07:31:30.483Z,22.50
2022-07-29T07:32:33.221Z,22.24
2022-07-29T07:33:34.888Z,22.22
2022-07-29T07:34:38.795Z,22.12
2022-07-29T07:35:41.052Z,22.18
2022-07-29T07:36:42.727Z,22.35
2022-07-29T07:37:44.530Z,22.37
2022-07-29T07:38:46.334Z,22.57
2022-07-29T07:39:48.033Z,22.64
2022-07-29T07:40:49.906Z,22.80
2022-07-29T07:41:51.739Z,22.85
2022-07-29T07:42:53.430Z,22.94
2022-07-29T07:43:55.222Z,22.87
2022-07-29T07:45:12.491Z,22.84
2022-07-29T07:46:15.775Z,22.70
2022-07-29T07:47:20.968Z,22.51
2022-07-29T07:48:23.972Z,22.39
2022-07-29T07:49:25.896Z,22.49
2022-07-29T07:50:27.799Z,22.43
2022-07-29T07:51:29.691Z,22.32
2022-07-29T07:52:31.386Z,22.22
2022-07-29T07:53:33.051Z,22.28
2022-07-29T07:54:34.681Z,22.37
2022-07-29T07:56:08.219Z,22.34
2022-07-29T07:57:03.187Z,22.54
2022-07-29T07:58:04.831Z,22.36
2022-07-29T07:59:06.504Z,22.42
2022-07-29T08:00:08.912Z,22.56
2022-07-29T08:01:14.191Z,22.74
2022-07-29T08:02:16.153Z,22.68
2022-07-29T08:03:17.968Z,22.93
2022-07-29T08:04:23.574Z,23.02
2022-07-29T08:05:28.684Z,23.06
2022-07-29T08:06:30.529Z,23.14
2022-07-29T08:07:32.307Z,23.12
2022-07-29T08:08:34.388Z,23.19
2022-07-29T08:09:37.287Z,23.07
2022-07-29T08:10:54.439Z,22.95
2022-07-29T08:11:57.634Z,22.83
2022-07-29T08:12:59.427Z,22.89
2022-07-29T08:14:02.494Z,23.03
2022-07-29T08:15:05.081Z,23.12
2022-07-29T08:16:13.938Z,23.02
2022-07-29T08:17:16.104Z,22.77
2022-07-29T08:18:17.824Z,22.77
2022-07-29T08:19:19.581Z,22.95
2022-07-29T08:20:21.425Z,23.11
2022-07-29T08:21:23.823Z,23.20
2022-07-29T08:22:26.152Z,23.25
2022-07-29T08:23:46.849Z,23.40
2022-07-29T08:24:55.558Z,23.72
2022-07-29T08:25:57.557Z,23.89
2022-07-29T08:26:59.342Z,23.83
2022-07-29T08:28:01.016Z,23.78
2022-07-29T08:29:02.709Z,23.67
2022-07-29T08:30:05.410Z,23.71
2022-07-29T08:31:07.748Z,23.85
2022-07-29T08:32:09.661Z,23.90
2022-07-29T08:33:11.408Z,23.78
2022-07-29T08:34:13.522Z,23.61
2022-07-29T08:35:15.139Z,23.59
2022-07-29T08:36:16.924Z,23.67
2022-07-29T08:37:18.673Z,23.83
2022-07-29T08:38:20.407Z,23.74
2022-07-29T08:39:22.306Z,23.87
2022-07-29T08:40:32.081Z,23.90
2022-07-29T08:41:37.060Z,23.94
2022-07-29T08:42:39.076Z,23.73
2022-07-29T08:43:42.027Z,23.72
2022-07-29T08:44:44.225Z,23.67
2022-07-29T08:45:53.184Z,23.73
2022-07-29T08:46:55.079Z,23.96
2022-07-29T08:47:57.832Z,23.97
2022-07-29T08:48:59.653Z,23.81
2022-07-29T08:50:01.324Z,23.64
2022-07-29T08:51:04.724Z,23.88
2022-07-29T08:52:07.906Z,23.85
2022-07-29T08:53:15.185Z,23.84
2022-07-29T08:54:21.965Z,23.97
2022-07-29T08:55:23.926Z,23.92
2022-07-29T08:56:25.584Z,23.77
2022-07-29T08:57:30.619Z,23.65
2022-07-29T08:58:36.955Z,23.70
2022-07-29T08:59:44.733Z,23.75
2022-07-29T09:00:55.374Z,23.76
2022-07-29T09:02:00.699Z,23.95
2022-07-29T09:03:04.130Z,23.99
2022-07-29T09:04:10.943Z,23.82
2022-07-29T09:05:12.835Z,23.92
2022-07-29T09:06:19.222Z,23.69
2022-07-29T09:07:21.049Z,23.78
2022-07-29T09:08:26.228Z,23.90
2022-07-29T09:09:28.084Z,23.97
2022-07-29T09:10:31.067Z,24.05
2022-07-29T09:11:34.208Z,24.24
2022-07-29T09:12:38.183Z,24.30
2022-07-29T09:13:40.579Z,24.40
2022-07-29T09:14:42.509Z,24.32
2022-07-29T09:15:47.615Z,24.18
2022-07-29T09:16:54.047Z,24.23
2022-07-29T09:17:57.547Z,24.19
2022-07-29T09:19:03.164Z,24.23
2022-07-29T09:20:26.247Z,24.34
2022-07-29T09:22:00.187Z,24.38
2022-07-29T09:23:09.485Z,23.99
2022-07-29T09:24:13.717Z,23.97
2022-07-29T09:25:15.970Z,23.95
2022-07-29T09:26:17.837Z,24.27
2022-07-29T09:27:22.965Z,24.50
2022-07-29T09:28:24.825Z,24.61
2022-07-29T09:29:32.094Z,24.64
2022-07-29T09:30:54.821Z,24.58
2022-07-29T09:31:56.617Z,24.47
2022-07-29T09:33:02.205Z,24.44
2022-07-29T09:34:04.919Z,24.68
2022-07-29T09:35:21.826Z,24.49
2022-07-29T09:36:23.502Z,24.51
2022-07-29T09:37:29.643Z,24.78
2022-07-29T09:38:33.944Z,24.95
2022-07-29T09:39:41.345Z,25.13
2022-07-29T09:40:57.716Z,25.14
2022-07-29T09:42:08.020Z,25.10
2022-07-29T09:43:14.094Z,25.24
2022-07-29T09:44:16.063Z,25.41
2022-07-29T09:45:32.295Z,25.24
2022-07-29T09:46:37.052Z,25.39
2022-07-29T09:47:45.999Z,25.13
2022-07-29T09:49:10.624Z,25.34
2022-07-29T09:50:12.890Z,25.21
2022-07-29T09:51:26.915Z,25.27
2022-07-29T09:52:31.273Z,25.22
2022-07-29T09:53:34.138Z,25.38
2022-07-29T09:54:40.866Z,25.49
2022-07-29T09:55:52.685Z,25.42
2022-07-29T09:56:57.979Z,25.47
2022-07-29T09:58:19.968Z,25.58
2022-07-29T09:59:23.346Z,25.72
2022-07-29T10:00:26.419Z,25.77
2022-07-29T10:01:31.233Z,25.78
2022-07-29T10:02:34.525Z,25.71
2022-07-29T10:03:52.981Z,25.71
2022-07-29T10:04:55.033Z,25.72
2022-07-29T10:06:07.872Z,25.88
2022-07-29T10:07:11.011Z,25.98
2022-07-29T10:08:13.475Z,26.05
2022-07-29T10:09:15.360Z,25.96
2022-07-29T10:10:22.232Z,26.12
2022-07-29T10:11:26.793Z,26.14
2022-07-29T10:13:01.861Z,26.11
2022-07-29T10:14:06.738Z,26.02
2022-07-29T10:15:09.050Z,26.05
2022-07-29T10:16:11.557Z,25.92
2022-07-29T10:17:17.144Z,26.16
2022-07-29T10:18:20.979Z,26.17
2022-07-29T10:19:23.217Z,26.31
2022-07-29T10:20:26.572Z,26.52
2022-07-29T10:21:35.816Z,26.55
2022-07-29T10:22:54.224Z,26.55
2022-07-29T10:23:59.631Z,26.53
2022-07-29T10:25:04.018Z,26.53
2022-07-29T10:26:05.939Z,26.79
2022-07-29T10:27:09.828Z,26.86
2022-07-29T10:28:15.982Z,26.61
2022-07-29T10:29:18.139Z,26.63
2022-07-29T10:30:21.398Z,26.67
2022-07-29T10:31:32.221Z,26.51
2022-07-29T10:33:12.591Z,26.41
2022-07-29T10:34:49.546Z,26.55
2022-07-29T10:36:19.706Z,26.74
2022-07-29T10:37:36.009Z,26.96
2022-07-29T10:38:56.300Z,27.17
2022-07-29T10:40:31.756Z,27.01
2022-07-29T10:42:29.597Z,26.58
2022-07-29T10:43:47.066Z,26.73
2022-07-29T10:44:54.372Z,26.88
2022-07-29T10:46:01.261Z,26.44
2022-07-29T10:47:03.183Z,26.45
2022-07-29T10:48:07.931Z,26.67
2022-07-29T10:49:19.147Z,26.68
2022-07-29T10:50:21.417Z,26.80
2022-07-29T10:51:23.946Z,26.90
2022-07-29T10:52:50.558Z,27.15
2022-07-29T10:53:54.321Z,27.32
2022-07-29T10:54:56.360Z,27.49
2022-07-29T10:55:58.394Z,27.13
2022-07-29T10:57:12.781Z,26.97
2022-07-29T10:58:17.747Z,26.63
2022-07-29T10:59:22.719Z,26.42
2022-07-29T11:00:29.886Z,26.43
2022-07-29T11:01:37.629Z,26.54
2022-07-29T11:02:44.593Z,26.53
2022-07-29T11:03:52.308Z,26.24
2022-07-29T11:04:55.514Z,26.21
2022-07-29T11:06:00.465Z,26.15
2022-07-29T11:08:28.093Z,26.42
2022-07-29T11:09:37.749Z,26.75
2022-07-29T11:10:41.352Z,27.01
2022-07-29T11:11:43.750Z,27.10
2022-07-29T11:12:48.393Z,27.12
2022-07-29T11:13:53.250Z,26.97
2022-07-29T11:14:55.758Z,27.02
2022-07-29T11:16:01.428Z,27.26
2022-07-29T11:17:09.187Z,27.31
2022-07-29T11:18:14.768Z,27.37
2022-07-29T11:19:26.254Z,27.12
2022-07-29T11:20:50.027Z,27.06
2022-07-29T11:22:00.316Z,27.34
2022-07-29T11:23:17.956Z,27.64
2022-07-29T11:24:30.276Z,27.42
2022-07-29T11:25:50.431Z,27.40
2022-07-29T11:27:17.995Z,27.56
2022-07-29T11:28:25.275Z,27.73
2022-07-29T11:29:27.788Z,27.93
2022-07-29T11:30:50.601Z,27.83
2022-07-29T11:31:56.760Z,27.75
2022-07-29T11:32:58.663Z,27.63
2022-07-29T11:34:29.719Z,27.72
2022-07-29T11:35:38.556Z,27.87
2022-07-29T11:37:11.982Z,28.14
2022-07-29T11:38:28.008Z,28.08
2022-07-29T11:41:23.931Z,28.04
2022-07-29T11:42:28.338Z,28.15
2022-07-29T11:43:54.277Z,28.18
2022-07-29T11:45:43.551Z,28.41
2022-07-29T11:46:48.090Z,28.46
2022-07-29T11:47:54.061Z,28.56
2022-07-29T11:48:57.143Z,28.41
2022-07-29T11:50:03.574Z,28.53
2022-07-29T11:51:13.341Z,28.43
2022-07-29T11:52:15.367Z,28.13
2022-07-29T11:53:17.619Z,28.24
2022-07-29T11:54:27.793Z,28.06
2022-07-29T11:55:32.522Z,28.15
2022-07-29T11:56:42.693Z,28.34
2022-07-29T11:58:03.726Z,28.64
2022-07-29T11:59:10.090Z,28.75
2022-07-29T12:00:28.953Z,28.77
2022-07-29T12:01:30.940Z,28.70
2022-07-29T12:02:44.405Z,28.45
2022-07-29T12:04:03.919Z,28.20
2022-07-29T12:05:11.312Z,28.16
2022-07-29T12:07:36.612Z,28.31
2022-07-29T12:08:45.338Z,28.51
2022-07-29T12:09:59.213Z,28.55
2022-07-29T12:11:22.883Z,28.44
2022-07-29T12:12:25.118Z,28.48
2022-07-29T12:13:40.487Z,28.64
2022-07-29T12:14:46.560Z,28.41
2022-07-29T12:15:59.846Z,28.44
2022-07-29T12:17:02.079Z,28.53
2022-07-29T12:18:15.406Z,28.45
2022-07-29T12:19:20.012Z,28.53
2022-07-29T12:20:29.867Z,28.58
2022-07-29T12:21:53.826Z,28.75
2022-07-29T12:22:58.914Z,28.73
2022-07-29T12:24:09.412Z,28.78
2022-07-29T12:25:32.249Z,29.04
2022-07-29T12:26:35.661Z,29.19
2022-07-29T12:27:43.071Z,29.33
2022-07-29T12:28:47.071Z,29.18
2022-07-29T12:30:01.642Z,29.10
2022-07-29T12:31:08.269Z,29.04
2022-07-29T12:32:14.424Z,28.71
2022-07-29T12:33:21.471Z,28.78
2022-07-29T12:34:25.037Z,28.92
2022-07-29T12:35:27.153Z,29.18
2022-07-29T12:36:31.455Z,28.94
2022-07-29T12:37:40.899Z,28.78
2022-07-29T12:38:44.851Z,28.76
2022-07-29T12:39:46.799Z,28.71
2022-07-29T12:40:50.126Z,28.77
2022-07-29T12:42:03.970Z,28.84
2022-07-29T12:43:10.839Z,28.93
2022-07-29T12:44:12.688Z,28.51
2022-07-29T12:45:15.018Z,28.41
2022-07-29T12:46:17.475Z,28.37
2022-07-29T12:47:20.735Z,28.56
2022-07-29T12:48:34.539Z,28.84
2022-07-29T12:49:38.169Z,28.94
2022-07-29T12:50:57.634Z,29.09
2022-07-29T12:51:59.939Z,29.33
2022-07-29T12:53:13.389Z,29.52
2022-07-29T12:54:16.321Z,29.74
2022-07-29T12:55:40.603Z,29.91
2022-07-29T12:56:45.312Z,30.06
2022-07-29T12:57:49.207Z,29.96
2022-07-29T12:58:53.689Z,29.76
2022-07-29T13:00:11.619Z,29.71
2022-07-29T13:01:17.114Z,29.88
2022-07-29T13:02:23.938Z,29.85
2022-07-29T13:03:25.720Z,29.56
2022-07-29T13:04:34.306Z,29.42
2022-07-29T13:05:49.194Z,29.29
2022-07-29T13:07:05.748Z,29.28
2022-07-29T13:08:21.906Z,29.34
2022-07-29T13:09:24.169Z,29.12
2022-07-29T13:10:26.057Z,28.92
2022-07-29T13:11:44.046Z,28.90
2022-07-29T13:13:03.440Z,29.09
2022-07-29T13:14:07.287Z,29.10
2022-07-29T13:15:19.916Z,28.63
2022-07-29T13:16:21.628Z,28.26
2022-07-29T13:17:24.141Z,28.35
2022-07-29T13:18:33.676Z,28.49
2022-07-29T13:19:36.718Z,28.67
2022-07-29T13:20:38.392Z,28.83
2022-07-29T13:21:40.862Z,28.72
2022-07-29T13:22:43.586Z,28.69
2022-07-29T13:23:45.304Z,28.86
2022-07-29T13:24:50.155Z,28.96
2022-07-29T13:26:07.065Z,29.06
2022-07-29T13:27:08.770Z,29.05
2022-07-29T13:28:12.497Z,28.97
2022-07-29T13:29:14.806Z,28.99
2022-07-29T13:30:18.543Z,29.09
2022-07-29T13:31:20.554Z,29.02
2022-07-29T13:32:28.273Z,29.04
2022-07-29T13:33:31.153Z,29.08
2022-07-29T13:34:35.555Z,29.11
2022-07-29T13:35:40.120Z,29.11
2022-07-29T13:36:42.368Z,29.20
2022-07-29T13:37:44.372Z,29.42
2022-07-29T13:38:46.075Z,29.52
2022-07-29T13:39:52.896Z,29.69
2022-07-29T13:40:55.191Z,29.75
2022-07-29T13:41:57.436Z,29.83
2022-07-29T13:42:59.377Z,30.05
2022-07-29T13:44:00.991Z,30.23
2022-07-29T13:45:04.184Z,30.40
2022-07-29T13:46:05.940Z,30.28
2022-07-29T13:47:08.855Z,30.15
2022-07-29T13:48:10.673Z,30.33
2022-07-29T13:49:12.387Z,30.56
2022-07-29T13:50:14.452Z,30.82
2022-07-29T13:51:19.035Z,30.63
2022-07-29T13:52:20.972Z,30.51
2022-07-29T13:53:26.902Z,30.44
2022-07-29T13:54:29.101Z,30.32
2022-07-29T13:55:33.782Z,30.05
2022-07-29T13:56:35.518Z,30.11
2022-07-29T13:57:37.389Z,29.96
2022-07-29T13:58:39.330Z,30.09
2022-07-29T13:59:42.903Z,30.08
2022-07-29T14:00:44.600Z,30.07
2022-07-29T14:01:46.520Z,30.25
2022-07-29T14:02:48.559Z,30.34
2022-07-29T14:03:50.611Z,30.45
2022-07-29T14:04:54.796Z,30.60
2022-07-29T14:05:57.319Z,30.52
2022-07-29T14:06:59.339Z,30.59
2022-07-29T14:08:05.784Z,30.44
2022-07-29T14:09:09.436Z,30.11
2022-07-29T14:10:11.514Z,29.97
2022-07-29T14:11:13.355Z,29.97
2022-07-29T14:12:18.087Z,30.13
2022-07-29T14:13:25.240Z,30.23